Latest Coastal Weather Observations for Yanakie

IDV60701

Issued at 9:32 pm EDT Wednesday 7 December 2022 (issued every 10 minutes, with the page automatically refreshed every 10 minutes)

About coastal observations | Map of coastal stations | Coastal observations for VIC | Marine services | Other Formats
Station Details ID: 085301 Name: YANAKIE Lat: -38.81 Lon: 146.19 Height: 13.3 m
Data from the previous 72 hours. | See also: Recent months at Yanakie
Date/Time
EDT
Wind Sea
Height
m
Swell Vis
km
Cloud Weather Temp
°C
Press
MSL
hPa
Rain since
9am
mm
Dir  Spd
kts
Gust
kts
Height
m
Period
s
Dir
07/09:30pm WSW 18 26 - - - - - - - 11.7 1004.8 1.8
07/09:18pm WSW 17 28 - - - - - - - 11.5 1004.7 1.6
07/09:00pm W 17 24 - - - - - - Rain 11.6 1004.4 0.4
07/08:30pm WSW 16 25 - - - - - - - 12.2 1003.9 0.0
07/08:00pm W 21 33 - - - - - - - 13.7 1003.6 0.0
07/07:55pm W 19 30 - - - - - - - 13.9 1003.5 0.0
07/07:30pm W 19 25 - - - - - - - 14.4 1003.3 0.0
07/07:00pm W 20 28 - - - - - - - 15.0 1003.2 0.0
07/06:30pm W 17 26 - - - - - - - 15.5 1003.0 0.0
07/06:00pm WSW 16 23 - - - - - - - 15.7 1003.0 0.0
07/05:30pm WSW 19 25 - - - - - - - 15.4 1003.0 0.0
07/05:00pm WSW 18 23 - - - - - - - 15.8 1003.1 0.0
07/04:30pm WSW 16 21 - - - - - - - 15.9 1003.2 0.0
07/04:00pm WSW 16 21 - - - - - - - 16.7 1003.4 0.0
07/03:30pm WSW 15 19 - - - - - - - 16.0 1003.5 0.0
07/03:00pm WSW 15 22 - - - - - - - 16.1 1003.6 0.0
07/02:30pm WSW 16 22 - - - - - - - 16.4 1003.7 0.0
07/02:00pm WSW 13 17 - - - - - - - 15.9 1003.7 0.0
07/01:30pm WSW 13 17 - - - - - - - 15.7 1003.8 0.0
07/01:00pm SW 14 20 - - - - - - - 15.5 1003.8 0.0
07/12:30pm SW 14 18 - - - - - - - 15.6 1003.7 0.0
07/12:00pm SW 13 18 - - - - - - - 16.5 1003.8 0.0
07/11:30am SW 14 18 - - - - - - - 16.4 1003.8 0.0
07/11:00am SW 12 17 - - - - - - - 16.6 1003.7 0.0
07/10:30am SW 11 15 - - - - - - - 16.3 1003.7 0.0
07/10:00am SW 11 14 - - - - - - - 16.5 1003.7 0.0
07/09:30am SW 9 12 - - - - - - - 15.8 1003.8 0.0
07/09:00am SW 8 12 - - - - - - - 15.6 1004.1 0.0
07/08:30am WSW 6 8 - - - - - - - 14.6 1004.0 0.0
07/08:00am W 5 7 - - - - - - - 13.3 1003.9 0.0
07/07:30am W 2 3 - - - - - - - 12.1 1003.8 0.0
07/07:00am WSW 2 2 - - - - - - - 10.4 1003.8 0.0
07/06:30am S 2 2 - - - - - - - 8.1 1003.8 0.0
07/06:00am CALM 0 0 - - - - - - - 7.5 1003.7 0.0
07/05:30am CALM 0 0 - - - - - - - 7.4 1003.6 0.0
07/05:00am CALM 0 0 - - - - - - - 7.8 1003.5 0.0
07/04:30am CALM 0 0 - - - - - - - 8.1 1003.8 0.0
07/04:00am CALM 0 0 - - - - - - - 8.7 1003.8 0.0
07/03:30am SW 2 2 - - - - - - - 8.8 1004.1 0.0
07/03:00am CALM 0 2 - - - - - - - 7.2 1004.7 0.0
07/02:30am CALM 0 0 - - - - - - - 7.0 1004.9 0.0
07/02:00am CALM 0 1 - - - - - - - 7.5 1005.1 0.0
07/01:30am SSW 1 2 - - - - - - - 7.8 1005.6 0.0
07/01:00am SSE 2 3 - - - - - - - 8.0 1006.0 0.0
07/12:30am CALM 0 0 - - - - - - - 8.2 1006.4 0.0
07/12:00am CALM 0 0 - - - - - - - 7.9 1006.8 0.0
 
Date/Time
EDT
Wind Sea
Height
m
Swell Vis
km
Cloud Weather Temp
°C
Press
MSL
hPa
Rain since
9am
mm
Dir  Spd
kts
Gust
kts
Height
m
Period
s
Dir
06/11:30pm CALM 0 0 - - - - - - - 8.3 1007.3 0.0
06/11:00pm CALM 0 0 - - - - - - - 9.1 1007.6 0.0
06/10:30pm NNW 2 2 - - - - - - - 9.2 1008.0 0.0
06/10:00pm CALM 0 1 - - - - - - - 9.2 1008.0 0.0
06/09:30pm CALM 0 1 - - - - - - - 9.9 1008.0 0.0
06/09:00pm CALM 0 2 - - - - - - - 11.3 1008.0 0.0
06/08:30pm SSW 1 2 - - - - - - - 12.8 1008.3 0.0
06/08:00pm SSW 3 4 - - - - - - - 13.7 1008.3 0.0
06/07:30pm SSW 4 6 - - - - - - - 15.0 1008.3 0.0
06/07:00pm SSW 5 8 - - - - - - - 15.4 1008.3 0.0
06/06:30pm SSW 6 8 - - - - - - - 15.8 1008.2 0.0
06/06:00pm SW 7 11 - - - - - - - 16.2 1008.3 0.0
06/05:30pm SSW 8 11 - - - - - - - 16.2 1008.4 0.0
06/05:00pm SW 7 10 - - - - - - - 16.7 1008.6 0.0
06/04:30pm SSW 8 14 - - - - - - - 17.1 1008.7 0.0
06/04:00pm SW 8 11 - - - - - - - 17.5 1009.2 0.0
06/03:30pm SW 7 10 - - - - - - - 17.8 1009.5 0.0
06/03:00pm SW 5 9 - - - - - - - 18.1 1009.7 0.0
06/02:30pm ESE 3 6 - - - - - - - 17.7 1009.8 0.0
06/02:00pm WNW 3 4 - - - - - - - 17.4 1010.4 0.0
06/01:30pm ENE 5 7 - - - - - - - 16.6 1010.5 0.0
06/01:00pm ENE 6 9 - - - - - - - 16.8 1010.7 0.0
06/12:30pm ENE 6 9 - - - - - - - 15.6 1011.0 0.0
06/12:00pm E 5 9 - - - - - - - 16.9 1011.3 0.0
06/11:30am ENE 5 8 - - - - - - - 16.4 1011.4 0.0
06/11:00am E 6 11 - - - - - - - 15.6 1011.6 0.0
06/10:30am ESE 6 9 - - - - - - - 15.3 1012.0 0.0
06/10:00am ESE 3 8 - - - - - - - 14.4 1012.1 0.0
06/09:30am E 4 6 - - - - - - - 15.7 1012.1 0.0
06/09:00am ESE 4 8 - - - - - - - 15.2 1012.4 8.0
06/08:30am ESE 6 9 - - - - - - - 15.1 1012.3 8.0
06/08:00am E 5 7 - - - - - - - 13.8 1012.0 8.0
06/07:30am E 5 8 - - - - - - - 13.4 1011.9 8.0
06/07:00am E 5 7 - - - - - - - 12.8 1011.9 8.0
06/06:30am ESE 5 9 - - - - - - - 12.5 1011.8 8.0
06/06:00am ESE 5 8 - - - - - - - 12.2 1011.7 8.0
06/05:30am ESE 4 8 - - - - - - - 12.0 1011.7 8.0
06/05:00am ESE 3 4 - - - - - - - 11.9 1011.6 8.0
06/04:30am ESE 4 6 - - - - - - - 11.8 1011.6 8.0
06/04:00am ESE 4 8 - - - - - - - 12.1 1011.5 8.0
06/03:30am E 3 4 - - - - - - - 12.5 1011.4 7.6
06/03:00am ESE 3 5 - - - - - - Recent precip. 12.6 1011.5 7.4
06/02:30am ENE 2 3 - - - - - - - 12.6 1011.5 7.4
06/02:00am E 5 8 - - - - - - - 12.4 1011.6 7.2
06/01:30am ESE 5 7 - - - - - - - 12.5 1011.7 6.8
06/01:00am E 7 12 - - - - - - - 12.3 1011.9 6.8
06/12:30am E 7 12 - - - - - - - 12.5 1012.2 6.6
06/12:00am E 7 10 - - - - - - Rain 13.0 1012.3 6.2
 
Date/Time
EDT
Wind Sea
Height
m
Swell Vis
km
Cloud Weather Temp
°C
Press
MSL
hPa
Rain since
9am
mm
Dir  Spd
kts
Gust
kts
Height
m
Period
s
Dir
05/11:30pm ESE 7 13 - - - - - - - 13.0 1012.4 6.0
05/11:00pm E 6 10 - - - - - - - 13.2 1012.4 5.4
05/10:30pm E 6 9 - - - - - - - 13.2 1012.4 5.0
05/10:00pm E 6 9 - - - - - - - 13.3 1012.3 4.6
05/09:30pm ESE 4 7 - - - - - - - 13.4 1011.9 4.4
05/09:00pm ESE 5 9 - - - - - - Rain 13.5 1011.6 3.6
05/08:30pm SE 2 4 - - - - - - - 13.8 1011.1 2.4
05/08:00pm SE 4 7 - - - - - - - 13.8 1010.7 2.2
05/07:30pm SE 5 8 - - - - - - - 13.9 1010.1 1.6
05/07:00pm SE 4 9 - - - - - - - 14.2 1009.3 1.4
05/06:30pm SSE 10 17 - - - - - - - 14.6 1008.8 0.8
05/06:00pm SSW 10 16 - - - - - - Rain 15.5 1007.7 0.8
05/05:30pm WSW 15 20 - - - - - - - 15.8 1007.6 0.0
05/05:00pm WSW 15 22 - - - - - - - 16.0 1007.7 0.0
05/04:30pm WSW 16 20 - - - - - - - 16.3 1007.7 0.0
05/04:00pm WSW 16 25 - - - - - - - 16.1 1007.5 0.0
05/03:30pm WSW 16 24 - - - - - - - 15.5 1007.5 0.0
05/03:00pm W 16 23 - - - - - - - 15.2 1007.4 0.0
05/02:30pm W 16 21 - - - - - - - 15.1 1007.3 0.0
05/02:00pm WSW 18 23 - - - - - - - 15.8 1007.3 0.0
05/01:30pm WSW 18 24 - - - - - - - 15.9 1007.2 0.0
05/01:00pm W 18 25 - - - - - - - 15.9 1007.1 0.0
05/12:30pm WSW 17 24 - - - - - - - 15.4 1007.0 0.0
05/12:00pm W 18 23 - - - - - - - 15.4 1007.0 0.0
05/11:30am W 20 25 - - - - - - - 15.8 1006.7 0.0
05/11:00am WSW 19 27 - - - - - - - 16.1 1006.6 0.0
05/10:30am W 17 23 - - - - - - - 16.4 1006.4 0.0
05/10:00am W 15 20 - - - - - - - 16.1 1006.5 0.0
05/09:30am W 16 23 - - - - - - - 15.7 1006.7 0.0
05/09:00am W 16 22 - - - - - - - 15.3 1006.7 1.0
05/08:30am WSW 17 23 - - - - - - - 15.2 1006.3 1.0
05/08:00am W 15 21 - - - - - - - 16.1 1006.0 1.0
05/07:30am WNW 13 18 - - - - - - - 16.3 1005.8 1.0
05/07:00am WNW 15 19 - - - - - - - 15.9 1005.7 1.0
05/06:30am WNW 11 17 - - - - - - - 15.8 1005.8 1.0
05/06:00am WNW 11 16 - - - - - - Recent precip. 15.7 1005.8 1.0
05/05:30am W 10 15 - - - - - - - 15.8 1005.7 0.6
05/05:02am W 15 25 - - - - - - - 16.2 1005.4 0.4
05/05:00am W 14 21 - - - - - - - 16.3 1005.3 0.4
05/04:30am W 13 18 - - - - - - - 16.3 1004.9 0.4
05/04:00am W 11 19 - - - - - - - 16.6 1004.5 0.4
05/03:30am W 12 17 - - - - - - - 17.0 1004.2 0.4
05/03:00am W 7 10 - - - - - - - 16.8 1003.6 0.4
05/02:30am WSW 8 11 - - - - - - - 17.2 1004.0 0.4
05/02:00am WSW 9 13 - - - - - - - 17.5 1004.2 0.4
05/01:30am WSW 13 19 - - - - - - - 19.1 1004.2 0.0
05/01:00am WSW 12 21 - - - - - - - 21.2 1004.0 0.0
05/12:30am NNE 3 6 - - - - - - - 20.8 1003.0 0.0
05/12:00am ENE 4 5 - - - - - - - 19.9 1002.8 0.0
 
Date/Time
EDT
Wind Sea
Height
m
Swell Vis
km
Cloud Weather Temp
°C
Press
MSL
hPa
Rain since
9am
mm
Dir  Spd
kts
Gust
kts
Height
m
Period
s
Dir
04/11:30pm NE 4 5 - - - - - - - 20.2 1003.0 0.0
04/11:00pm NE 4 6 - - - - - - - 20.2 1003.6 0.0
04/10:30pm NE 5 7 - - - - - - - 20.6 1004.2 0.0
04/10:00pm NE 5 8 - - - - - - - 20.9 1004.8 0.0

Other formats

Comma delimited format used in spreadsheet applications
http://www.bom.gov.au/fwo/IDV60701/IDV60701.94911.axf

JavaScript Object Notation format (JSON) in row-major order
http://www.bom.gov.au/fwo/IDV60701/IDV60701.94911.json

Data quality

Most of these data are generated automatically and are frequently updated. Quality checks on data are not normally performed. It is possible for incorrect values to appear. Refer to information at About Latest Weather Observations and please check the disclaimer before using these data.